Time;durP1;ratioP1;P1;durP2;ratioP2;P2;SDS_P1;SDS_P2;PMS_P1;PMS_P2;Temp;Humidity;BMP_temperature;BMP_pressure;BME280_temperature;BME280_humidity;BME280_pressure;Samples;Min_cycle;Max_cycle;Signal;HPM_P1;HPM_P2
2022/04/02 00:01:42;;;;;;;5.78;2.35;;;;;;;1.77;87.55;101719.41;4987673;28;20121;-68
2022/04/02 00:04:09;;;;;;;5.57;2.20;;;;;;;1.77;86.97;101722.03;4983505;28;20022;-68
2022/04/02 00:06:35;;;;;;;10.02;2.50;;;;;;;1.75;87.51;101722.03;4986176;28;20053;-68
2022/04/02 00:09:00;;;;;;;5.18;2.30;;;;;;;1.73;86.81;101731.56;4989820;28;20030;-67
2022/04/02 00:11:26;;;;;;;4.10;2.17;;;;;;;1.70;87.00;101717.63;4990070;28;20065;-66
2022/04/02 00:13:52;;;;;;;4.53;2.33;;;;;;;1.73;86.75;101722.88;4986914;28;20081;-66
2022/04/02 00:16:17;;;;;;;6.70;2.50;;;;;;;1.73;87.37;101715.91;4989849;28;20504;-67
2022/04/02 00:18:43;;;;;;;5.63;2.38;;;;;;;1.73;87.35;101715.91;4962802;28;20406;-67
2022/04/02 00:21:09;;;;;;;3.97;2.28;;;;;;;1.74;86.76;101720.28;4989666;28;20057;-67
2022/04/02 00:23:43;;;;;;;6.47;2.67;;;;;;;1.80;86.17;101716.81;4988498;28;20462;-68
2022/04/02 00:26:10;;;;;;;3.83;2.25;;;;;;;1.87;85.66;101717.75;4984887;28;20050;-68
2022/04/02 00:28:37;;;;;;;6.60;2.40;;;;;;;1.91;85.67;101712.53;4989911;28;20031;-68
2022/04/02 00:31:04;;;;;;;5.20;2.50;;;;;;;1.99;85.65;101711.69;4987617;28;20478;-68
2022/04/02 00:33:30;;;;;;;7.05;2.83;;;;;;;2.03;85.01;101708.22;4963622;28;20022;-67
2022/04/02 00:35:56;;;;;;;5.35;2.20;;;;;;;2.05;84.92;101711.72;4987255;28;20401;-67
2022/04/02 00:38:21;;;;;;;8.45;2.53;;;;;;;2.08;84.72;101711.72;4988373;28;20500;-67
2022/04/02 00:40:46;;;;;;;6.25;2.30;;;;;;;2.05;85.55;101709.97;4985831;28;20085;-68
2022/04/02 00:43:22;;;;;;;5.55;2.60;;;;;;;2.04;85.44;101704.75;4987294;28;20030;-68
2022/04/02 00:45:48;;;;;;;5.15;2.08;;;;;;;2.01;85.65;101707.34;4985234;28;20045;-67
2022/04/02 00:48:14;;;;;;;7.30;2.42;;;;;;;2.00;85.13;101716.91;5003186;28;20033;-67
2022/04/02 00:50:39;;;;;;;8.68;2.85;;;;;;;1.99;85.76;101702.09;4967974;28;20022;-68
2022/04/02 00:53:04;;;;;;;9.88;2.45;;;;;;;2.04;85.56;101707.38;4990525;28;20026;-68
2022/04/02 00:55:30;;;;;;;5.93;2.05;;;;;;;2.09;84.88;101716.97;4999017;28;20490;-67
2022/04/02 00:57:57;;;;;;;7.38;2.50;;;;;;;2.10;85.67;101707.41;4984911;28;20053;-67
2022/04/02 01:00:23;;;;;;;8.50;2.30;;;;;;;2.11;85.32;101711.72;4987010;28;20062;-68
2022/04/02 01:02:48;;;;;;;11.00;2.60;;;;;;;2.13;85.36;101716.09;4989515;28;20449;-68
2022/04/02 01:05:14;;;;;;;4.72;2.33;;;;;;;2.20;84.77;101711.78;4988146;28;20037;-68
2022/04/02 01:07:39;;;;;;;9.10;2.35;;;;;;;2.22;84.96;101706.56;4987995;28;20559;-68
2022/04/02 01:10:05;;;;;;;7.10;2.33;;;;;;;2.24;85.05;101708.31;4980467;28;20546;-66
2022/04/02 01:12:31;;;;;;;7.15;2.90;;;;;;;2.23;86.07;101711.78;4989429;28;20031;-66
2022/04/02 01:14:56;;;;;;;9.77;3.05;;;;;;;2.24;85.66;101710.94;4984253;28;20122;-66
2022/04/02 01:17:22;;;;;;;5.35;1.90;;;;;;;2.27;85.38;101726.59;4987273;28;20057;-66
2022/04/02 01:19:47;;;;;;;6.30;2.28;;;;;;;2.29;85.58;101724.88;4987669;28;20105;-66
2022/04/02 01:22:13;;;;;;;7.55;2.10;;;;;;;2.32;85.98;101726.63;4962750;28;20034;-66
2022/04/02 01:24:38;;;;;;;8.20;2.58;;;;;;;2.30;86.62;101728.38;4986742;28;20057;-66
2022/04/02 01:27:04;;;;;;;7.00;2.30;;;;;;;2.28;86.86;101717.03;4988590;28;20426;-67
2022/04/02 01:29:33;;;;;;;7.10;2.42;;;;;;;2.27;87.46;101717.91;5002807;28;20038;-66
2022/04/02 01:31:59;;;;;;;9.68;2.67;;;;;;;2.26;87.37;101726.59;4989396;28;20089;-66
2022/04/02 01:34:28;;;;;;;8.82;2.35;;;;;;;2.24;87.48;101717.91;4987131;28;20026;-67
2022/04/02 01:36:54;;;;;;;8.43;2.35;;;;;;;2.23;87.06;101716.16;4978757;28;20041;-68
2022/04/02 01:39:19;;;;;;;5.68;2.58;;;;;;;2.23;87.84;101719.63;4989643;28;20030;-68
2022/04/02 01:41:44;;;;;;;6.85;2.30;;;;;;;2.23;87.23;101724.00;4992100;28;20041;-67
2022/04/02 01:44:10;;;;;;;6.13;2.30;;;;;;;2.19;87.77;101719.63;4991277;28;20034;-67
2022/04/02 01:46:35;;;;;;;4.40;2.10;;;;;;;2.11;87.91;101724.78;4992032;28;20121;-67
2022/04/02 01:49:01;;;;;;;2.92;2.00;;;;;;;2.04;87.74;101729.13;5001087;28;20048;-68
2022/04/02 01:51:26;;;;;;;7.88;3.50;;;;;;;1.97;88.52;101729.97;5005067;28;20042;-67
2022/04/02 01:53:52;;;;;;;5.13;2.83;;;;;;;1.92;89.22;101729.94;4989793;28;20069;-68
2022/04/02 01:56:17;;;;;;;7.60;2.35;;;;;;;1.89;88.50;101737.78;4969547;28;20058;-68
2022/04/02 01:58:42;;;;;;;7.68;2.55;;;;;;;1.87;89.09;101734.28;4991234;28;20032;-67
2022/04/02 02:01:08;;;;;;;6.72;2.67;;;;;;;1.85;89.58;101737.75;4994086;28;20034;-66
2022/04/02 02:03:34;;;;;;;5.38;2.35;;;;;;;1.79;89.29;101731.63;4986227;28;20100;-68
2022/04/02 02:05:59;;;;;;;4.18;2.10;;;;;;;1.77;89.46;101738.56;4994769;28;20069;-68
2022/04/02 02:08:25;;;;;;;3.60;2.67;;;;;;;1.74;90.13;101738.56;5009460;28;20022;-68
2022/04/02 02:10:50;;;;;;;4.78;2.20;;;;;;;1.71;90.08;101737.66;5002703;28;20038;-66
2022/04/02 02:13:15;;;;;;;4.38;2.20;;;;;;;1.71;89.83;101732.44;4992295;28;20117;-66
2022/04/02 02:15:41;;;;;;;4.78;2.75;;;;;;;1.69;90.43;101728.91;4991257;28;20046;-68
2022/04/02 02:18:06;;;;;;;5.03;2.35;;;;;;;1.66;90.04;101728.91;4979981;28;20030;-67
2022/04/02 02:20:33;;;;;;;4.03;2.50;;;;;;;1.63;90.57;101730.63;4991457;28;20159;-66
2022/04/02 02:22:58;;;;;;;4.38;2.25;;;;;;;1.62;91.48;101733.25;4989402;28;20064;-66
2022/04/02 02:25:24;;;;;;;7.80;2.83;;;;;;;1.59;91.45;101731.47;4988665;28;20030;-67
2022/04/02 02:27:49;;;;;;;3.30;2.42;;;;;;;1.59;91.53;101743.69;4998790;28;20494;-66
2022/04/02 02:30:16;;;;;;;5.95;2.60;;;;;;;1.58;91.63;101729.72;4992503;28;20132;-68
2022/04/02 02:32:42;;;;;;;7.28;2.65;;;;;;;1.60;91.50;101733.25;4988129;28;20145;-68
2022/04/02 02:38:08;;;;;;;4.55;2.35;;;;;;;1.59;91.64;101748.91;4977516;28;20053;-67
2022/04/02 02:40:34;;;;;;;5.97;2.65;;;;;;;1.60;90.87;101741.06;4977244;28;20490;-68
2022/04/02 02:43:00;;;;;;;6.85;2.92;;;;;;;1.58;90.82;101753.22;4983507;28;20125;-67
2022/04/02 02:45:25;;;;;;;7.25;2.80;;;;;;;1.59;90.85;101748.91;4988214;28;20062;-68
2022/04/02 02:47:52;;;;;;;4.50;2.63;;;;;;;1.61;89.61;101757.59;4986787;28;20050;-66
2022/04/02 02:50:18;;;;;;;7.45;2.63;;;;;;;1.63;89.29;101753.28;4984947;28;20125;-68
2022/04/02 02:52:43;;;;;;;4.90;2.60;;;;;;;1.62;89.78;101747.19;4986347;28;20022;-68
2022/04/02 02:55:10;;;;;;;7.75;2.75;;;;;;;1.60;89.50;101755.88;4989063;28;20062;-68
2022/04/02 02:57:39;;;;;;;3.65;2.35;;;;;;;1.60;89.75;101750.66;5001765;28;20033;-68
2022/04/02 03:00:07;;;;;;;7.85;2.85;;;;;;;1.62;89.74;101751.50;4987278;28;20165;-67
2022/04/02 03:02:33;;;;;;;5.30;2.63;;;;;;;1.62;90.14;101760.25;4986277;28;20060;-67
2022/04/02 03:04:58;;;;;;;5.20;2.50;;;;;;;1.60;90.70;101756.72;4988239;28;20037;-67
2022/04/02 03:07:25;;;;;;;4.70;2.65;;;;;;;1.60;90.42;101755.88;4989111;28;20033;-68
2022/04/02 03:09:51;;;;;;;6.30;2.85;;;;;;;1.57;90.59;101753.22;4983716;28;20513;-67
2022/04/02 03:12:16;;;;;;;4.80;2.70;;;;;;;1.54;91.11;101751.47;4986654;28;20042;-67
2022/04/02 03:14:42;;;;;;;5.57;2.60;;;;;;;1.50;91.42;101748.81;5003312;28;20023;-67
2022/04/02 03:17:08;;;;;;;6.00;2.55;;;;;;;1.44;92.42;101752.25;4982036;28;20498;-66
2022/04/02 03:19:35;;;;;;;5.03;2.50;;;;;;;1.43;92.36;101751.41;4983517;28;20502;-66
2022/04/02 03:22:00;;;;;;;5.75;2.60;;;;;;;1.41;92.53;101747.03;4988914;28;20057;-66
2022/04/02 03:24:26;;;;;;;4.53;2.67;;;;;;;1.34;92.91;101764.34;4986305;28;20490;-67
2022/04/02 03:26:52;;;;;;;6.70;3.08;;;;;;;1.31;93.84;101762.59;4989259;28;20069;-66
2022/04/02 03:29:17;;;;;;;4.43;2.67;;;;;;;1.28;93.53;101754.75;4990223;28;20049;-67
2022/04/02 03:31:43;;;;;;;9.25;2.92;;;;;;;1.29;94.34;101753.00;4992745;28;20045;-67
2022/04/02 03:34:08;;;;;;;5.80;2.50;;;;;;;1.30;94.23;101753.03;4991075;28;20038;-68
2022/04/02 03:36:34;;;;;;;6.57;2.75;;;;;;;1.27;94.43;101757.34;4988115;28;20053;-67
2022/04/02 03:38:59;;;;;;;6.63;2.90;;;;;;;1.28;93.89;101752.13;4985286;28;20480;-68
2022/04/02 03:41:26;;;;;;;7.15;3.45;;;;;;;1.23;94.02;101761.66;4970756;28;20022;-68
2022/04/02 03:43:53;;;;;;;4.80;2.80;;;;;;;1.19;94.92;101753.78;4984271;28;20065;-67
2022/04/02 03:49:03;;;;;;;8.43;3.00;;;;;;;1.14;95.52;101759.84;4982102;28;20097;-68
2022/04/02 03:51:29;;;;;;;7.15;2.83;;;;;;;1.10;95.57;101767.63;4972589;28;20026;-67
2022/04/02 03:53:54;;;;;;;8.30;2.67;;;;;;;1.12;96.13;101760.69;4984925;28;20414;-67
2022/04/02 03:56:19;;;;;;;5.65;2.60;;;;;;;1.13;95.88;101763.31;4987044;28;20058;-67
2022/04/02 03:58:45;;;;;;;4.43;2.90;;;;;;;1.12;95.74;101760.69;4985375;28;20026;-68
2022/04/02 04:01:10;;;;;;;5.10;2.72;;;;;;;1.10;95.59;101760.69;4986084;28;20100;-67
2022/04/02 04:03:35;;;;;;;6.82;3.03;;;;;;;1.05;95.51;101757.16;4987069;28;20034;-67
2022/04/02 04:06:01;;;;;;;6.32;2.72;;;;;;;1.02;96.24;101761.47;4984639;28;20108;-67
2022/04/02 04:08:26;;;;;;;4.57;2.80;;;;;;;0.96;96.58;101755.34;4983676;28;20081;-67
2022/04/02 04:10:51;;;;;;;5.25;2.67;;;;;;;0.93;96.78;101760.53;4968509;28;20038;-67
2022/04/02 04:13:17;;;;;;;4.95;2.75;;;;;;;0.88;97.32;101761.31;4984056;28;20110;-67
2022/04/02 04:15:42;;;;;;;6.15;2.53;;;;;;;0.88;97.46;101775.22;4982396;28;20125;-68
2022/04/02 04:18:10;;;;;;;6.05;2.58;;;;;;;0.87;97.23;101772.59;4988060;28;20437;-67
2022/04/02 04:20:35;;;;;;;4.07;2.53;;;;;;;0.88;97.06;101779.59;4988414;28;20046;-69
2022/04/02 04:23:00;;;;;;;8.95;3.00;;;;;;;0.87;97.25;101783.94;4983918;28;20027;-68
2022/04/02 04:25:26;;;;;;;5.00;2.70;;;;;;;0.86;96.86;101789.09;4985791;28;20042;-68
2022/04/02 04:27:51;;;;;;;3.63;2.60;;;;;;;0.83;96.92;101784.72;4968367;28;20027;-68
2022/04/02 04:30:17;;;;;;;7.72;2.90;;;;;;;0.83;96.87;101795.16;4983580;28;20122;-67
2022/04/02 04:32:42;;;;;;;8.00;2.72;;;;;;;0.86;96.56;101790.00;4984067;28;20038;-67
2022/04/02 04:35:08;;;;;;;6.15;3.00;;;;;;;0.87;96.39;101789.16;4981613;28;20027;-67
2022/04/02 04:37:35;;;;;;;6.75;2.70;;;;;;;0.86;96.38;101791.72;4986082;28;20109;-68
2022/04/02 04:40:01;;;;;;;8.65;3.15;;;;;;;0.81;96.60;101792.53;4981896;28;20509;-66
2022/04/02 04:42:26;;;;;;;6.88;2.90;;;;;;;0.81;96.15;101787.34;5007322;28;20038;-68
2022/04/02 04:44:51;;;;;;;6.90;3.10;;;;;;;0.76;96.62;101790.75;4983833;28;20022;-67
2022/04/02 04:47:17;;;;;;;5.47;2.83;;;;;;;0.70;96.15;101794.16;4983121;28;20064;-67
2022/04/02 04:49:42;;;;;;;5.50;2.53;;;;;;;0.62;96.70;101804.50;4983979;28;20069;-67
2022/04/02 04:52:07;;;;;;;7.43;3.15;;;;;;;0.52;97.12;101810.47;4983819;28;20062;-68
2022/04/02 04:54:33;;;;;;;4.90;2.50;;;;;;;0.51;97.78;101810.44;4985817;28;20050;-68
2022/04/02 04:56:58;;;;;;;10.35;3.25;;;;;;;0.51;97.77;101811.31;4988764;28;20058;-68
2022/04/02 04:59:23;;;;;;;5.30;2.83;;;;;;;0.48;97.69;101813.88;4986981;28;20060;-66
2022/04/02 05:01:49;;;;;;;5.30;3.03;;;;;;;0.46;98.12;101821.69;4990646;28;20080;-68
2022/04/02 05:04:14;;;;;;;7.80;3.00;;;;;;;0.49;97.50;101820.84;5000775;28;20050;-69
2022/04/02 05:06:41;;;;;;;7.95;2.97;;;;;;;0.46;98.16;101823.41;4988063;28;20033;-67
2022/04/02 05:09:06;;;;;;;7.32;2.70;;;;;;;0.45;97.76;101821.69;4990915;28;20124;-68
2022/04/02 05:11:32;;;;;;;4.82;2.70;;;;;;;0.45;97.58;101817.31;5001073;28;20069;-68
2022/04/02 05:13:58;;;;;;;5.78;2.78;;;;;;;0.48;97.57;101827.78;4998304;28;20038;-66
2022/04/02 05:16:26;;;;;;;6.22;2.97;;;;;;;0.53;97.01;101824.38;5009233;28;20041;-67
2022/04/02 05:18:51;;;;;;;9.30;2.95;;;;;;;0.57;96.04;101829.63;4989170;28;20057;-67
2022/04/02 05:21:17;;;;;;;5.00;2.78;;;;;;;0.57;96.00;101826.16;5002831;28;20030;-67
2022/04/02 05:23:42;;;;;;;9.98;3.38;;;;;;;0.57;96.21;101834.84;5022612;28;20034;-68
2022/04/02 05:26:08;;;;;;;5.93;3.10;;;;;;;0.60;95.74;101836.63;5004230;28;20054;-68
2022/04/02 05:28:33;;;;;;;5.65;3.05;;;;;;;0.61;95.55;101827.94;5001673;28;20474;-67
2022/04/02 05:30:59;;;;;;;5.45;2.90;;;;;;;0.63;95.38;101834.06;4995082;28;20069;-67
2022/04/02 05:33:24;;;;;;;7.15;2.92;;;;;;;0.67;95.35;101841.06;5002626;28;20366;-67
2022/04/02 05:35:50;;;;;;;6.88;2.70;;;;;;;0.64;95.02;101839.28;4992800;28;20034;-66
2022/04/02 05:38:15;;;;;;;7.90;3.08;;;;;;;0.67;94.78;101846.28;5001312;28;20470;-68
2022/04/02 05:40:41;;;;;;;8.18;3.05;;;;;;;0.72;94.96;101843.72;4993881;28;20491;-66
2022/04/02 05:43:07;;;;;;;5.97;3.03;;;;;;;0.70;94.94;101845.44;4998271;28;20553;-68
2022/04/02 05:45:33;;;;;;;8.85;2.53;;;;;;;0.68;94.76;101850.63;5000443;28;20429;-69
2022/04/02 05:47:58;;;;;;;6.30;3.00;;;;;;;0.71;94.60;101865.44;4980487;28;20022;-67
2022/04/02 05:50:26;;;;;;;7.05;3.00;;;;;;;0.71;94.49;101861.09;5000948;28;20095;-67
2022/04/02 05:52:52;;;;;;;6.10;3.33;;;;;;;0.75;94.08;101865.47;5002414;28;20033;-66
2022/04/02 05:55:18;;;;;;;6.05;3.00;;;;;;;0.78;93.36;101860.31;4995787;28;20117;-66
2022/04/02 05:57:45;;;;;;;6.47;2.97;;;;;;;0.80;93.36;101866.41;5003251;28;20061;-67
2022/04/02 06:00:12;;;;;;;7.55;2.80;;;;;;;0.88;92.56;101866.50;4998684;28;20025;-68
2022/04/02 06:02:38;;;;;;;7.78;2.92;;;;;;;0.93;92.21;101879.59;5003773;28;20100;-67
2022/04/02 06:05:06;;;;;;;7.20;2.70;;;;;;;0.96;91.75;101874.44;4975322;28;20077;-66
2022/04/02 06:07:32;;;;;;;5.68;2.67;;;;;;;0.96;91.46;101875.31;4986892;28;20398;-68
2022/04/02 06:09:58;;;;;;;6.50;2.42;;;;;;;1.00;91.24;101889.25;5002377;28;20030;-67
2022/04/02 06:12:23;;;;;;;5.30;2.78;;;;;;;1.04;91.44;101883.22;4987717;28;20026;-68
2022/04/02 06:14:49;;;;;;;5.07;2.80;;;;;;;1.14;91.67;101884.22;4984915;28;20042;-68
2022/04/02 06:17:14;;;;;;;4.72;2.90;;;;;;;1.24;91.71;101887.78;4987885;28;20074;-67
2022/04/02 06:19:39;;;;;;;6.55;2.63;;;;;;;1.36;91.01;101889.66;4982047;28;20148;-69
2022/04/02 06:22:06;;;;;;;7.00;2.85;;;;;;;1.47;90.23;101891.50;4987425;28;20030;-67
2022/04/02 06:24:35;;;;;;;6.45;2.70;;;;;;;1.54;89.57;101902.00;4983877;28;20041;-68
2022/04/02 06:27:02;;;;;;;4.15;2.72;;;;;;;1.56;88.69;101895.06;4986448;28;20091;-68
2022/04/02 06:29:27;;;;;;;5.43;2.53;;;;;;;1.58;88.80;101893.34;4993429;28;20425;-67
2022/04/02 06:31:53;;;;;;;6.63;3.00;;;;;;;1.55;88.31;101899.41;4988300;28;20049;-67
2022/04/02 06:34:18;;;;;;;5.57;2.78;;;;;;;1.59;88.26;101905.53;4991839;28;20033;-66
2022/04/02 06:36:43;;;;;;;7.40;2.75;;;;;;;1.59;89.17;101908.16;4991369;28;20042;-67
2022/04/02 06:39:09;;;;;;;4.45;2.70;;;;;;;1.59;88.70;101914.25;4986124;28;20034;-67
2022/04/02 06:41:34;;;;;;;4.93;2.67;;;;;;;1.61;88.98;101907.31;4989413;28;20034;-66
2022/04/02 06:44:00;;;;;;;5.32;2.60;;;;;;;1.63;89.33;101921.22;4992674;28;20516;-66
2022/04/02 06:46:25;;;;;;;5.43;2.78;;;;;;;1.67;89.15;101918.66;4991643;28;20199;-68
2022/04/02 06:48:50;;;;;;;6.72;2.78;;;;;;;1.72;88.82;101922.19;4985273;28;20524;-67
2022/04/02 06:51:17;;;;;;;4.60;2.78;;;;;;;1.74;89.00;101923.06;4981310;28;20745;-67
2022/04/02 06:53:42;;;;;;;5.25;2.72;;;;;;;1.80;88.55;101941.41;4988593;28;20045;-68
2022/04/02 06:56:08;;;;;;;10.15;3.05;;;;;;;1.84;89.06;101932.72;4987584;28;20019;-67
2022/04/02 06:58:39;;;;;;;5.28;2.63;;;;;;;1.88;87.62;101931.94;5022674;28;20540;-67
2022/04/02 07:01:05;;;;;;;6.27;2.90;;;;;;;1.95;87.90;101933.72;4983659;28;20397;-67
2022/04/02 07:03:30;;;;;;;4.38;2.63;;;;;;;1.98;87.74;101943.31;4985176;28;20045;-67
2022/04/02 07:05:56;;;;;;;8.75;2.97;;;;;;;2.05;87.06;101936.44;4987405;28;20038;-67
2022/04/02 07:08:21;;;;;;;4.50;2.67;;;;;;;2.09;85.92;101952.13;4985680;28;20030;-68
2022/04/02 07:10:47;;;;;;;6.90;2.97;;;;;;;2.16;87.06;101950.41;4987041;28;20035;-68
2022/04/02 07:13:12;;;;;;;7.07;2.78;;;;;;;2.28;86.51;101950.53;4988324;28;20030;-69
2022/04/02 07:15:41;;;;;;;5.90;2.88;;;;;;;2.31;86.56;101949.66;4985114;28;20058;-68
2022/04/02 07:18:08;;;;;;;4.75;2.60;;;;;;;2.36;85.42;101955.81;4982602;28;20080;-69
2022/04/02 07:20:38;;;;;;;6.22;3.00;;;;;;;2.47;86.27;101955.91;4984651;28;20047;-69
2022/04/02 07:23:09;;;;;;;8.98;2.72;;;;;;;2.50;85.91;101955.91;4985211;28;20026;-67
2022/04/02 07:25:41;;;;;;;4.57;2.70;;;;;;;2.69;84.63;101962.13;4987991;28;20026;-68
2022/04/02 07:28:08;;;;;;;7.13;3.05;;;;;;;2.74;83.48;101964.78;4999982;28;20034;-67
2022/04/02 07:30:36;;;;;;;8.20;2.80;;;;;;;2.82;80.81;101963.06;4991234;28;20030;-68
2022/04/02 07:33:02;;;;;;;6.43;2.65;;;;;;;2.84;80.11;101966.59;4994428;28;20033;-68
2022/04/02 07:35:45;;;;;;;8.43;3.10;;;;;;;2.92;80.44;101970.09;5003676;28;20057;-69
2022/04/02 07:38:18;;;;;;;4.85;2.47;;;;;;;2.99;79.86;101975.38;4998241;28;20035;-69
2022/04/02 07:41:14;;;;;;;7.22;2.80;;;;;;;3.06;79.11;101978.03;4993666;28;20030;-69
2022/04/02 07:43:42;;;;;;;6.65;2.72;;;;;;;3.18;79.05;101977.19;4996405;28;20497;-69
2022/04/02 07:46:14;;;;;;;6.05;2.80;;;;;;;3.23;78.71;101985.09;4995707;28;20022;-68
2022/04/02 07:48:41;;;;;;;5.55;2.80;;;;;;;3.26;75.76;101977.22;4997429;28;20026;-68
2022/04/02 07:51:14;;;;;;;3.85;2.22;;;;;;;3.33;74.99;101975.53;4993579;28;20489;-67
2022/04/02 07:53:46;;;;;;;4.57;2.50;;;;;;;3.37;73.42;101979.91;5017014;28;20542;-67
2022/04/02 07:56:19;;;;;;;;;;;;;;;3.47;73.28;101978.19;4993527;28;20474;-68
2022/04/02 07:58:48;;;;;;;3.88;2.28;;;;;;;3.54;72.99;101978.22;4995062;28;19921;-67
2022/04/02 08:01:18;;;;;;;4.65;2.35;;;;;;;3.62;73.19;101983.47;4995296;28;20422;-67
2022/04/02 08:03:44;;;;;;;3.25;2.20;;;;;;;3.61;71.77;101979.97;5004351;28;20026;-67
2022/04/02 08:06:12;;;;;;;4.70;2.35;;;;;;;3.70;70.22;101988.72;4992558;28;20118;-68
2022/04/02 08:08:38;;;;;;;2.92;1.90;;;;;;;3.76;67.13;101992.22;4995438;28;20066;-67
2022/04/02 08:11:03;;;;;;;5.28;1.90;;;;;;;3.72;65.29;101995.72;4989311;28;20042;-67
2022/04/02 08:13:30;;;;;;;4.53;1.73;;;;;;;3.83;65.83;102000.09;5003165;28;20109;-68
2022/04/02 08:15:57;;;;;;;2.70;2.00;;;;;;;4.00;64.55;101992.25;4976483;28;20039;-68
2022/04/02 08:18:26;;;;;;;4.07;1.75;;;;;;;4.39;61.31;101991.41;4991815;28;20563;-68
2022/04/02 08:20:52;;;;;;;2.28;1.42;;;;;;;4.81;56.06;102000.94;5007639;28;20106;-68
2022/04/02 08:23:17;;;;;;;2.08;1.50;;;;;;;5.18;56.27;101991.22;4995979;28;20038;-68
2022/04/02 08:25:50;;;;;;;3.03;1.50;;;;;;;5.47;55.57;101995.47;4996429;28;20091;-68
2022/04/02 08:28:48;;;;;;;3.47;1.75;;;;;;;5.88;54.85;101996.13;4995524;28;20077;-67
2022/04/02 08:31:31;;;;;;;2.88;1.50;;;;;;;5.93;52.55;101996.94;4973376;28;20026;-69
2022/04/02 08:34:34;;;;;;;4.75;1.77;;;;;;;5.78;52.23;102002.31;4978649;28;20030;-67
2022/04/02 08:37:39;;;;;;;6.13;1.70;;;;;;;5.84;51.59;101992.63;4987179;28;20497;-68
2022/04/02 08:40:36;;;;;;;3.65;1.55;;;;;;;5.85;52.20;101998.78;4994896;28;20371;-68
2022/04/02 08:43:11;;;;;;;2.83;1.70;;;;;;;5.90;52.40;102003.09;4991704;28;20081;-67
2022/04/02 08:46:06;;;;;;;4.03;1.75;;;;;;;5.84;48.00;102000.50;5001326;28;20040;-67
2022/04/02 08:48:35;;;;;;;3.25;1.83;;;;;;;5.69;48.58;102013.75;5005458;28;20042;-67
2022/04/02 08:51:10;;;;;;;5.35;1.98;;;;;;;5.61;49.68;102020.81;5001031;28;20532;-68
2022/04/02 08:53:51;;;;;;;3.58;1.88;;;;;;;5.67;48.07;102012.91;4993638;28;20030;-68
2022/04/02 08:56:22;;;;;;;6.82;1.92;;;;;;;5.89;50.46;102017.13;4990940;28;20112;-67
2022/04/02 08:59:07;;;;;;;3.55;2.00;;;;;;;5.98;46.73;102024.13;4998786;28;20500;-67
2022/04/02 09:01:58;;;;;;;4.55;1.67;;;;;;;5.82;45.43;102031.22;4997626;28;20080;-66
2022/04/02 09:04:43;;;;;;;4.70;2.20;;;;;;;5.97;47.03;102026.72;4992021;28;20105;-66
2022/04/02 09:07:21;;;;;;;5.82;1.90;;;;;;;5.86;47.29;102034.69;4991821;28;20061;-67
2022/04/02 09:10:14;;;;;;;2.78;1.92;;;;;;;5.83;46.45;102037.34;4973750;28;20046;-67
2022/04/02 09:12:45;;;;;;;2.47;1.77;;;;;;;5.62;46.41;102040.97;4982622;28;20085;-68
2022/04/02 09:15:13;;;;;;;2.30;1.65;;;;;;;5.90;45.47;102032.03;4974293;28;20034;-69
2022/04/02 09:18:29;;;;;;;3.67;1.77;;;;;;;7.00;45.76;102049.56;4991719;28;20027;-68
2022/04/02 09:21:00;;;;;;;6.13;1.80;;;;;;;8.52;43.28;102043.16;4918477;29;20058;-66
2022/04/02 09:23:44;;;;;;;3.63;2.03;;;;;;;9.25;40.81;102038.31;4956245;28;20031;-67
2022/04/02 09:26:28;;;;;;;3.45;1.60;;;;;;;10.27;35.67;102042.25;5000852;28;20050;-67
2022/04/02 09:29:06;;;;;;;3.20;2.00;;;;;;;10.69;34.53;102038.59;4991585;28;20069;-67
2022/04/02 09:32:16;;;;;;;3.85;2.13;;;;;;;11.12;32.24;102044.50;4978067;28;20030;-67
2022/04/02 09:34:45;;;;;;;3.65;2.00;;;;;;;11.07;32.75;102039.31;4979356;28;20034;-66
2022/04/02 09:37:28;;;;;;;3.63;1.90;;;;;;;11.39;31.28;102041.97;4990873;28;20390;-66
2022/04/02 09:39:54;;;;;;;6.75;2.10;;;;;;;11.23;33.20;102047.72;4991107;28;20367;-66
2022/04/02 09:42:35;;;;;;;3.80;2.00;;;;;;;11.38;32.75;102034.94;5001141;28;20030;-66
2022/04/02 09:45:04;;;;;;;2.58;1.80;;;;;;;12.04;31.49;102046.22;4997193;28;20394;-67
2022/04/02 09:47:33;;;;;;;3.03;1.80;;;;;;;12.52;29.23;102036.72;4991236;28;20030;-67
2022/04/02 09:50:11;;;;;;;6.15;2.00;;;;;;;12.51;29.79;102048.25;4996986;28;20662;-67
2022/04/02 09:52:44;;;;;;;3.03;1.88;;;;;;;10.71;32.14;102044.72;4991299;28;20026;-66
2022/04/02 09:55:14;;;;;;;2.55;1.60;;;;;;;9.12;34.32;102058.84;4991196;28;20073;-67
2022/04/02 09:57:58;;;;;;;5.95;1.88;;;;;;;7.94;35.78;102059.84;4970823;28;20079;-66
2022/04/02 10:00:37;;;;;;;4.88;1.60;;;;;;;8.95;36.03;102054.75;4993655;28;20053;-66
2022/04/02 10:03:13;;;;;;;7.20;1.80;;;;;;;9.98;33.56;102051.72;4994076;28;20026;-66
2022/04/02 10:06:11;;;;;;;5.10;1.98;;;;;;;9.38;33.38;102057.44;4995084;28;20090;-66
2022/04/02 10:09:11;;;;;;;2.38;1.80;;;;;;;9.07;36.04;102058.91;4994645;28;20027;-66
2022/04/02 10:11:43;;;;;;;3.78;1.70;;;;;;;10.05;35.92;102056.88;4998209;28;20030;-66
2022/04/02 10:14:09;;;;;;;4.60;1.70;;;;;;;10.33;34.22;102051.81;5009840;28;20061;-67
2022/04/02 10:16:35;;;;;;;3.65;1.80;;;;;;;11.08;33.52;102056.13;5003495;28;20359;-66
2022/04/02 10:19:09;;;;;;;3.40;1.58;;;;;;;11.22;33.58;102053.09;4997015;28;20050;-67
2022/04/02 10:21:37;;;;;;;3.35;1.70;;;;;;;12.62;32.56;102047.88;4993042;28;20026;-66
2022/04/02 10:24:22;;;;;;;4.65;1.90;;;;;;;12.69;32.09;102040.59;4998104;28;20090;-67
2022/04/02 10:26:55;;;;;;;4.78;1.98;;;;;;;13.96;29.91;102036.81;4991863;28;20475;-67
2022/04/02 10:29:37;;;;;;;3.72;2.08;;;;;;;13.40;29.44;102044.28;4987587;28;20081;-67
2022/04/02 10:32:11;;;;;;;4.57;1.92;;;;;;;12.94;29.63;102045.91;5001632;28;20382;-67
2022/04/02 10:35:03;;;;;;;3.70;1.98;;;;;;;12.13;30.86;102043.31;4998922;28;20121;-66
2022/04/02 10:37:40;;;;;;;2.90;1.90;;;;;;;11.09;30.48;102050.75;4992784;28;20137;-66
2022/04/02 10:40:08;;;;;;;2.92;2.00;;;;;;;9.86;32.74;102056.44;4993308;28;20112;-67
2022/04/02 10:42:38;;;;;;;3.65;1.88;;;;;;;8.43;35.58;102055.63;4977152;28;20556;-66
2022/04/02 10:45:14;;;;;;;1.52;1.40;;;;;;;8.73;34.87;102053.38;4994127;28;20108;-66
2022/04/02 10:47:46;;;;;;;3.83;1.77;;;;;;;10.40;32.67;102052.56;4983005;28;20026;-66
2022/04/02 10:50:15;;;;;;;3.00;1.60;;;;;;;10.72;32.05;102058.84;4997724;28;20042;-66
2022/04/02 10:52:41;;;;;;;2.30;1.85;;;;;;;9.88;33.70;102057.28;4993255;28;20034;-66
2022/04/02 10:55:06;;;;;;;3.00;1.55;;;;;;;7.82;35.42;102053.84;4995314;28;20500;-66
2022/04/02 10:57:32;;;;;;;2.13;1.73;;;;;;;7.18;37.15;102050.28;4993285;28;20509;-67
2022/04/02 11:00:07;;;;;;;4.18;2.20;;;;;;;6.99;38.87;102060.13;4994018;28;20042;-66
2022/04/02 11:02:43;;;;;;;3.13;1.75;;;;;;;7.68;37.53;102056.69;4994226;28;20033;-66
2022/04/02 11:05:14;;;;;;;7.43;2.25;;;;;;;7.59;35.95;102056.81;4994122;28;20022;-66
2022/04/02 11:07:43;;;;;;;4.45;1.65;;;;;;;7.34;37.14;102066.75;4994135;28;20109;-66
2022/04/02 11:10:13;;;;;;;2.80;1.77;;;;;;;7.05;38.51;102055.66;5010993;28;20033;-66
2022/04/02 11:12:41;;;;;;;3.42;1.88;;;;;;;6.85;39.84;102061.16;4995960;28;20121;-67
2022/04/02 11:15:14;;;;;;;3.03;1.73;;;;;;;8.45;39.35;102067.00;4993967;28;20109;-66
2022/04/02 11:17:44;;;;;;;3.30;1.90;;;;;;;9.96;34.80;102053.56;4993665;28;20037;-65
2022/04/02 11:20:42;;;;;;;5.05;2.05;;;;;;;9.25;34.16;102062.13;4985652;28;20072;-66
2022/04/02 11:23:20;;;;;;;3.88;1.92;;;;;;;9.88;32.91;102054.63;4977577;28;20068;-66
2022/04/02 11:25:54;;;;;;;4.40;1.90;;;;;;;11.38;31.55;102046.44;5006597;28;20033;-65
2022/04/02 11:28:22;;;;;;;5.15;2.03;;;;;;;12.44;31.02;102036.09;4993538;28;20116;-66
2022/04/02 11:30:52;;;;;;;3.33;1.70;;;;;;;12.58;28.70;102038.28;4993577;28;20023;-66
2022/04/02 11:33:20;;;;;;;4.82;1.80;;;;;;;13.09;27.31;102044.50;4993695;28;20117;-65
2022/04/02 11:35:54;;;;;;;2.15;1.67;;;;;;;13.23;26.99;102041.34;4999481;28;20057;-66
2022/04/02 11:38:20;;;;;;;5.30;2.10;;;;;;;11.98;29.20;102046.41;4987747;28;20070;-65
2022/04/02 11:41:25;;;;;;;3.95;2.65;;;;;;;12.55;26.98;102033.94;4982263;28;20030;-68
2022/04/02 11:44:02;;;;;;;2.97;1.80;;;;;;;11.54;29.39;102035.38;4976801;28;20044;-66
2022/04/02 11:46:28;;;;;;;3.33;2.03;;;;;;;12.23;28.90;102033.25;4986491;28;20076;-66
2022/04/02 11:48:59;;;;;;;3.30;2.05;;;;;;;11.41;30.34;102043.69;4971541;28;20065;-66